Airport details for: LRCL (Romania)

Metar

LRCL 240700Z 32006KT 280V350 9999 FEW055 22/13 Q1016

General details

ICAO: LRCL
IATA: CLJ
Name (city): Cluj Napoca
Major:
Country: Romania
vACC: vACC Romania
Description:

Cluj Airport

Scenery links:
FS9 scenery: Download
FSX/P3D scenery:
XP scenery:
Elevation: 1039 ft.
Transition altitude: 5000 ft.
MSA: 6600 ft.
Latitude: 46.789167
Longitude: 23.692222
LRCL Charts
LRCL Notams
LRCL Online stations

Runways

Number Course Length Elevation Lat Lon ILS ILS freq ILS FAC GP
07 67° 6693ft / 2040 m 1037ft 46.785147 23.674058 - - 3.0°
25 247° 6693ft / 2040 m 1023ft 46.790195 23.696461 111.9 247° 3.0°